Time;durP1;ratioP1;P1;durP2;ratioP2;P2;SDS_P1;SDS_P2;PMS_P1;PMS_P2;Temp;Humidity;BMP_temperature;BMP_pressure;BME280_temperature;BME280_humidity;BME280_pressure;Samples;Min_cycle;Max_cycle;Signal;HPM_P1;HPM_P2
2022/03/13 00:02:16;;;;;;;15.40;8.73;;;;;;;;;;5033139;27;108118;-67
2022/03/13 00:04:43;;;;;;;17.23;8.57;;;;;;;;;;5013007;28;106142;-67
2022/03/13 00:07:14;;;;;;;18.27;9.27;;;;;;;;;;5026350;27;105846;-67
2022/03/13 00:09:40;;;;;;;17.08;9.35;;;;;;;;;;5042249;27;106266;-67
2022/03/13 00:12:08;;;;;;;19.60;8.98;;;;;;;;;;5040415;27;107211;-67
2022/03/13 00:14:34;;;;;;;18.92;9.48;;;;;;;;;;5046083;27;106195;-68
2022/03/13 00:17:01;;;;;;;19.65;9.60;;;;;;;;;;5023299;27;107858;-68
2022/03/13 00:19:33;;;;;;;15.60;9.27;;;;;;;;;;5040110;27;106288;-68
2022/03/13 00:21:59;;;;;;;14.40;8.48;;;;;;;;;;5049676;27;105630;-68
2022/03/13 00:24:26;;;;;;;14.93;9.15;;;;;;;;;;5048324;27;105887;-69
2022/03/13 00:26:52;;;;;;;15.93;8.77;;;;;;;;;;5043542;27;106970;-66
2022/03/13 00:29:19;;;;;;;15.40;8.75;;;;;;;;;;5018998;27;107346;-68
2022/03/13 00:31:46;;;;;;;15.52;8.88;;;;;;;;;;5036745;27;105912;-68
2022/03/13 00:34:14;;;;;;;14.98;9.52;;;;;;;;;;5032467;27;107095;-68
2022/03/13 00:36:41;;;;;;;16.52;8.70;;;;;;;;;;5039360;27;107486;-68
2022/03/13 00:39:08;;;;;;;19.58;8.75;;;;;;;;;;5039879;27;107468;-68
2022/03/13 00:41:36;;;;;;;13.75;7.85;;;;;;;;;;5044427;27;106178;-68
2022/03/13 00:44:02;;;;;;;15.55;8.93;;;;;;;;;;5024647;27;105828;-69
2022/03/13 00:46:29;;;;;;;19.85;7.88;;;;;;;;;;5042781;27;106215;-67
2022/03/13 00:48:58;;;;;;;;;;;;;;;;;;5027829;27;107682;-67
2022/03/13 00:51:24;;;;;;;15.68;7.88;;;;;;;;;;5019957;27;125974;-69
2022/03/13 00:53:51;;;;;;;13.50;7.60;;;;;;;;;;5038993;27;106296;-68
2022/03/13 00:56:17;;;;;;;14.40;7.50;;;;;;;;;;5046631;27;109487;-66
2022/03/13 00:58:43;;;;;;;14.50;7.90;;;;;;;;;;5033997;27;106020;-68
2022/03/13 01:01:10;;;;;;;12.20;7.30;;;;;;;;;;5038896;27;106955;-68
2022/03/13 01:03:37;;;;;;;14.95;7.00;;;;;;;;;;5017482;27;106347;-68
2022/03/13 01:06:04;;;;;;;14.30;6.75;;;;;;;;;;5042010;27;106117;-67
2022/03/13 01:08:30;;;;;;;11.90;6.72;;;;;;;;;;5043398;27;107864;-68
2022/03/13 01:10:57;;;;;;;14.02;6.47;;;;;;;;;;5045880;27;107524;-67
2022/03/13 01:13:24;;;;;;;10.00;5.57;;;;;;;;;;5042384;27;107131;-69
2022/03/13 01:15:55;;;;;;;10.57;6.10;;;;;;;;;;5039272;27;108035;-68
2022/03/13 01:18:22;;;;;;;10.38;6.00;;;;;;;;;;5030625;27;106365;-68
2022/03/13 01:20:48;;;;;;;10.68;5.63;;;;;;;;;;5029229;27;107533;-68
2022/03/13 01:23:15;;;;;;;15.10;6.00;;;;;;;;;;5036757;27;106848;-69
2022/03/13 01:25:41;;;;;;;9.13;5.35;;;;;;;;;;5051554;27;106504;-66
2022/03/13 01:28:11;;;;;;;10.57;5.95;;;;;;;;;;5031634;27;107272;-67
2022/03/13 01:30:37;;;;;;;10.38;6.22;;;;;;;;;;5042659;27;107303;-67
2022/03/13 01:33:04;;;;;;;11.20;5.53;;;;;;;;;;5031914;27;108260;-67
2022/03/13 01:35:30;;;;;;;8.98;5.35;;;;;;;;;;5042528;27;107520;-67
2022/03/13 01:37:58;;;;;;;16.80;6.10;;;;;;;;;;5039429;27;106057;-68
2022/03/13 01:40:24;;;;;;;10.38;6.00;;;;;;;;;;5041980;27;105891;-67
2022/03/13 01:42:51;;;;;;;9.52;5.75;;;;;;;;;;5041763;27;107038;-67
2022/03/13 01:45:18;;;;;;;12.13;5.70;;;;;;;;;;5041938;27;105758;-67
2022/03/13 01:47:45;;;;;;;9.25;5.65;;;;;;;;;;5035503;27;107309;-67
2022/03/13 01:50:12;;;;;;;10.27;6.07;;;;;;;;;;5026696;27;105905;-67
2022/03/13 01:52:41;;;;;;;12.35;5.68;;;;;;;;;;5042339;27;107148;-67
2022/03/13 01:55:08;;;;;;;9.77;5.63;;;;;;;;;;5037376;27;106939;-67
2022/03/13 01:57:37;;;;;;;10.40;6.07;;;;;;;;;;5042128;27;107961;-67
2022/03/13 02:00:06;;;;;;;9.05;5.53;;;;;;;;;;5012711;27;109347;-66
2022/03/13 02:02:43;;;;;;;13.45;6.05;;;;;;;;;;5026179;22;107507;-65
2022/03/13 02:05:18;;;;;;;11.38;6.07;;;;;;;;;;4995912;28;107894;-66
2022/03/13 02:07:45;;;;;;;10.15;6.35;;;;;;;;;;4986093;28;107671;-66
2022/03/13 02:10:12;;;;;;;12.63;6.40;;;;;;;;;;4991793;28;107535;-65
2022/03/13 02:12:38;;;;;;;12.98;6.47;;;;;;;;;;4979398;28;106450;-65
2022/03/13 02:15:04;;;;;;;11.18;6.88;;;;;;;;;;4990541;28;107705;-66
2022/03/13 02:17:34;;;;;;;11.15;6.45;;;;;;;;;;4989749;28;106325;-65
2022/03/13 02:20:00;;;;;;;;;;;;;;;;;;4970235;28;107308;-64
2022/03/13 02:22:27;;;;;;;13.38;6.28;;;;;;;;;;4993956;28;136786;-65
2022/03/13 02:24:53;;;;;;;13.43;6.03;;;;;;;;;;4979977;28;107759;-65
2022/03/13 02:27:21;;;;;;;11.57;6.70;;;;;;;;;;4974107;28;108481;-65
2022/03/13 02:29:48;;;;;;;9.82;6.47;;;;;;;;;;4983889;28;107771;-65
2022/03/13 02:32:17;;;;;;;18.42;6.82;;;;;;;;;;4984096;28;107370;-66
2022/03/13 02:34:43;;;;;;;13.50;6.05;;;;;;;;;;5002579;28;107448;-65
2022/03/13 02:37:29;;;;;;;13.70;7.57;;;;;;;;;;4985424;28;106215;-66
2022/03/13 02:39:56;;;;;;;11.10;7.40;;;;;;;;;;5003994;28;107440;-64
2022/03/13 02:42:24;;;;;;;13.23;7.18;;;;;;;;;;4990063;28;107327;-64
2022/03/13 02:44:50;;;;;;;13.98;7.53;;;;;;;;;;4993623;28;105969;-65
2022/03/13 02:47:16;;;;;;;12.93;7.63;;;;;;;;;;4987587;28;107000;-65
2022/03/13 02:49:43;;;;;;;10.73;6.63;;;;;;;;;;4995237;28;107529;-65
2022/03/13 02:52:12;;;;;;;11.68;6.55;;;;;;;;;;4986211;28;106225;-64
2022/03/13 02:54:39;;;;;;;11.63;6.78;;;;;;;;;;4985835;28;106929;-65
2022/03/13 02:57:05;;;;;;;11.77;6.68;;;;;;;;;;4989096;28;107318;-66
2022/03/13 02:59:31;;;;;;;12.90;6.93;;;;;;;;;;4980178;28;107359;-65
2022/03/13 03:01:58;;;;;;;13.88;7.38;;;;;;;;;;4990412;28;106334;-65
2022/03/13 03:04:25;;;;;;;12.80;7.22;;;;;;;;;;4996704;28;106881;-65
2022/03/13 03:07:02;;;;;;;12.20;7.43;;;;;;;;;;4990097;28;108921;-65
2022/03/13 03:09:29;;;;;;;12.18;7.82;;;;;;;;;;4976865;28;107388;-65
2022/03/13 03:11:57;;;;;;;13.32;7.38;;;;;;;;;;4988007;28;106696;-65
2022/03/13 03:14:23;;;;;;;14.88;7.55;;;;;;;;;;4993440;28;106579;-65
2022/03/13 03:16:49;;;;;;;15.88;8.57;;;;;;;;;;4977150;28;106070;-66
2022/03/13 03:19:16;;;;;;;15.70;8.05;;;;;;;;;;4975542;28;107032;-65
2022/03/13 03:21:42;;;;;;;16.23;8.13;;;;;;;;;;4968886;28;108432;-65
2022/03/13 03:24:13;;;;;;;16.33;8.30;;;;;;;;;;4988346;28;107481;-65
2022/03/13 03:26:40;;;;;;;13.52;8.13;;;;;;;;;;4984127;28;107044;-65
2022/03/13 03:29:06;;;;;;;16.98;8.93;;;;;;;;;;4973634;28;106524;-66
2022/03/13 03:31:32;;;;;;;15.45;8.13;;;;;;;;;;4997763;28;106137;-65
2022/03/13 03:33:59;;;;;;;14.40;8.32;;;;;;;;;;4992456;28;108373;-65
2022/03/13 03:36:25;;;;;;;18.83;8.50;;;;;;;;;;4986807;28;108614;-65
2022/03/13 03:38:51;;;;;;;16.52;8.52;;;;;;;;;;4972811;28;108804;-65
2022/03/13 03:41:18;;;;;;;14.63;8.68;;;;;;;;;;4992608;28;107701;-65
2022/03/13 03:43:46;;;;;;;15.30;8.38;;;;;;;;;;4984775;28;106633;-65
2022/03/13 03:46:14;;;;;;;18.17;8.00;;;;;;;;;;4979296;28;106099;-65
2022/03/13 03:48:40;;;;;;;15.02;9.07;;;;;;;;;;4986856;28;107418;-64
2022/03/13 03:51:06;;;;;;;15.23;8.50;;;;;;;;;;4983035;28;106377;-65
2022/03/13 03:53:33;;;;;;;14.55;8.63;;;;;;;;;;4988964;28;106768;-65
2022/03/13 03:55:59;;;;;;;15.60;8.88;;;;;;;;;;4991497;28;106393;-65
2022/03/13 03:58:26;;;;;;;16.20;8.85;;;;;;;;;;5000251;28;108482;-65
2022/03/13 04:00:53;;;;;;;15.68;8.45;;;;;;;;;;4981491;28;107707;-65
2022/03/13 04:03:19;;;;;;;16.35;9.48;;;;;;;;;;4994311;28;108467;-64
2022/03/13 04:05:45;;;;;;;16.15;8.90;;;;;;;;;;4982281;28;107092;-66
2022/03/13 04:08:12;;;;;;;18.90;8.63;;;;;;;;;;4997733;28;106260;-65
2022/03/13 04:10:39;;;;;;;18.05;9.10;;;;;;;;;;4974169;28;106796;-65
2022/03/13 04:13:05;;;;;;;16.67;9.60;;;;;;;;;;4969772;28;106853;-65
2022/03/13 04:15:31;;;;;;;15.52;8.80;;;;;;;;;;4975545;28;107440;-65
2022/03/13 04:17:58;;;;;;;18.02;10.00;;;;;;;;;;4979560;28;106087;-65
2022/03/13 04:20:24;;;;;;;17.75;10.90;;;;;;;;;;5004711;28;106801;-65
2022/03/13 04:22:51;;;;;;;21.10;10.15;;;;;;;;;;4996515;28;106970;-65
2022/03/13 04:25:17;;;;;;;21.63;10.70;;;;;;;;;;4992742;28;107001;-65
2022/03/13 04:27:44;;;;;;;18.98;11.20;;;;;;;;;;4982275;28;106610;-64
2022/03/13 04:30:10;;;;;;;19.75;11.52;;;;;;;;;;4984671;28;105870;-65
2022/03/13 04:32:37;;;;;;;18.88;10.93;;;;;;;;;;4986968;28;108204;-64
2022/03/13 04:35:03;;;;;;;22.20;11.68;;;;;;;;;;4993947;28;107788;-65
2022/03/13 04:37:30;;;;;;;22.00;11.95;;;;;;;;;;4988867;28;108320;-65
2022/03/13 04:39:56;;;;;;;17.95;11.00;;;;;;;;;;4993354;28;106734;-64
2022/03/13 04:42:22;;;;;;;21.80;11.70;;;;;;;;;;4986917;28;106336;-65
2022/03/13 04:44:49;;;;;;;20.05;11.90;;;;;;;;;;4976908;28;107310;-65
2022/03/13 04:47:15;;;;;;;20.77;12.27;;;;;;;;;;4986964;28;108293;-65
2022/03/13 04:49:43;;;;;;;21.15;12.43;;;;;;;;;;4978127;28;106465;-65
2022/03/13 04:52:13;;;;;;;23.52;11.95;;;;;;;;;;4990703;28;107097;-65
2022/03/13 04:54:39;;;;;;;24.25;12.32;;;;;;;;;;4985312;28;107219;-65
2022/03/13 04:57:06;;;;;;;23.58;12.00;;;;;;;;;;4985201;28;106421;-65
2022/03/13 04:59:32;;;;;;;21.00;11.82;;;;;;;;;;4989897;28;105758;-66
2022/03/13 05:02:00;;;;;;;23.05;12.43;;;;;;;;;;4996275;28;107205;-65
2022/03/13 05:04:26;;;;;;;23.63;12.68;;;;;;;;;;4979110;28;107531;-64
2022/03/13 05:06:53;;;;;;;21.73;12.40;;;;;;;;;;4989582;28;108150;-65
2022/03/13 05:09:19;;;;;;;25.98;13.27;;;;;;;;;;4980827;28;105712;-65
2022/03/13 05:11:46;;;;;;;22.85;12.88;;;;;;;;;;4987185;28;107050;-65
2022/03/13 05:14:12;;;;;;;24.80;13.60;;;;;;;;;;4989997;28;106649;-65
2022/03/13 05:16:38;;;;;;;20.25;12.60;;;;;;;;;;4996285;28;106821;-67
2022/03/13 05:19:06;;;;;;;23.10;12.55;;;;;;;;;;4996509;28;107553;-66
2022/03/13 05:21:41;;;;;;;22.70;13.18;;;;;;;;;;4992214;28;107717;-65
2022/03/13 05:24:07;;;;;;;22.13;12.90;;;;;;;;;;4988283;28;105781;-65
2022/03/13 05:26:34;;;;;;;26.27;13.13;;;;;;;;;;4986874;28;107224;-66
2022/03/13 05:29:01;;;;;;;26.95;13.20;;;;;;;;;;4986713;28;106689;-64
2022/03/13 05:31:28;;;;;;;24.70;13.60;;;;;;;;;;4987291;28;107258;-64
2022/03/13 05:33:54;;;;;;;30.55;13.10;;;;;;;;;;4989615;28;108532;-65
2022/03/13 05:36:20;;;;;;;26.33;13.38;;;;;;;;;;4992238;28;106651;-64
2022/03/13 05:38:47;;;;;;;22.27;12.68;;;;;;;;;;4995858;28;107335;-64
2022/03/13 05:41:15;;;;;;;21.67;12.80;;;;;;;;;;4990166;28;107329;-64
2022/03/13 05:43:43;;;;;;;21.70;12.82;;;;;;;;;;4979523;28;106063;-65
2022/03/13 05:46:10;;;;;;;27.15;13.85;;;;;;;;;;4995643;28;108070;-65
2022/03/13 05:48:36;;;;;;;24.02;13.23;;;;;;;;;;4981425;28;108454;-65
2022/03/13 05:51:02;;;;;;;26.90;14.38;;;;;;;;;;4999715;28;107031;-64
2022/03/13 05:53:29;;;;;;;28.95;15.40;;;;;;;;;;4988737;28;107424;-64
2022/03/13 05:55:55;;;;;;;20.90;12.38;;;;;;;;;;4990128;28;106820;-65
2022/03/13 05:58:23;;;;;;;26.55;14.50;;;;;;;;;;4989411;28;108463;-65
2022/03/13 06:01:06;;;;;;;26.30;13.57;;;;;;;;;;4983724;27;107554;-65
2022/03/13 06:03:33;;;;;;;26.40;13.82;;;;;;;;;;4989573;28;107297;-66
2022/03/13 06:06:02;;;;;;;24.80;13.43;;;;;;;;;;4990304;28;106873;-64
2022/03/13 06:08:28;;;;;;;27.45;14.95;;;;;;;;;;4990420;28;106568;-64
2022/03/13 06:10:55;;;;;;;26.58;14.02;;;;;;;;;;4987912;28;106150;-68
2022/03/13 06:13:22;;;;;;;24.33;13.82;;;;;;;;;;4980816;28;107163;-63
2022/03/13 06:15:49;;;;;;;25.17;13.60;;;;;;;;;;4982842;28;106284;-65
2022/03/13 06:18:16;;;;;;;24.67;13.82;;;;;;;;;;4989437;28;106651;-64
2022/03/13 06:20:43;;;;;;;24.52;14.30;;;;;;;;;;4987217;28;107332;-63
2022/03/13 06:23:10;;;;;;;25.63;13.80;;;;;;;;;;4986416;28;108001;-67
2022/03/13 06:25:36;;;;;;;21.08;13.10;;;;;;;;;;4986017;28;107916;-63
2022/03/13 06:28:03;;;;;;;22.70;13.85;;;;;;;;;;4989152;28;107487;-65
2022/03/13 06:30:30;;;;;;;23.13;13.15;;;;;;;;;;4998665;28;106445;-63
2022/03/13 06:32:56;;;;;;;25.25;14.68;;;;;;;;;;4981554;28;107549;-64
2022/03/13 06:35:23;;;;;;;24.25;13.07;;;;;;;;;;4986253;28;106877;-65
2022/03/13 06:37:54;;;;;;;26.45;14.40;;;;;;;;;;4988432;28;107776;-64
2022/03/13 06:40:22;;;;;;;26.00;13.15;;;;;;;;;;4985793;28;107867;-64
2022/03/13 06:42:55;;;;;;;25.40;13.77;;;;;;;;;;4988231;28;106356;-61
2022/03/13 06:45:22;;;;;;;23.30;13.20;;;;;;;;;;4984816;28;106064;-62
2022/03/13 06:47:49;;;;;;;21.67;12.75;;;;;;;;;;4983422;28;106429;-64
2022/03/13 06:50:17;;;;;;;28.33;13.40;;;;;;;;;;4992164;28;105977;-64
2022/03/13 06:52:45;;;;;;;23.15;13.85;;;;;;;;;;4974340;28;106386;-65
2022/03/13 06:55:13;;;;;;;27.27;13.77;;;;;;;;;;4987472;28;106246;-64
2022/03/13 06:57:43;;;;;;;23.38;13.70;;;;;;;;;;4984684;28;106716;-64
2022/03/13 07:00:10;;;;;;;22.17;12.38;;;;;;;;;;4987115;28;107444;-66
2022/03/13 07:02:37;;;;;;;24.52;12.52;;;;;;;;;;4984096;28;106286;-63
2022/03/13 07:05:06;;;;;;;21.83;12.80;;;;;;;;;;4988930;28;107401;-65
2022/03/13 07:07:32;;;;;;;25.15;12.80;;;;;;;;;;4966648;28;106492;-64
2022/03/13 07:09:59;;;;;;;25.42;13.18;;;;;;;;;;4989142;28;107130;-63
2022/03/13 07:12:25;;;;;;;22.70;12.68;;;;;;;;;;4988030;28;106877;-64
2022/03/13 07:14:56;;;;;;;23.52;12.77;;;;;;;;;;4986467;28;106004;-65
2022/03/13 07:17:23;;;;;;;21.50;12.60;;;;;;;;;;4976969;28;107011;-64
2022/03/13 07:19:50;;;;;;;21.73;12.50;;;;;;;;;;4978366;28;106387;-64
2022/03/13 07:22:16;;;;;;;22.63;12.48;;;;;;;;;;4977299;28;106604;-64
2022/03/13 07:24:46;;;;;;;22.92;12.02;;;;;;;;;;4970332;28;106736;-64
2022/03/13 07:27:14;;;;;;;21.95;12.25;;;;;;;;;;4977718;28;107634;-65
2022/03/13 07:29:40;;;;;;;22.60;12.25;;;;;;;;;;4984686;28;106358;-64
2022/03/13 07:32:07;;;;;;;23.90;11.55;;;;;;;;;;4986846;28;106125;-65
2022/03/13 07:34:33;;;;;;;22.38;12.30;;;;;;;;;;4989962;28;108069;-66
2022/03/13 07:36:59;;;;;;;19.88;11.18;;;;;;;;;;4996558;28;107352;-64
2022/03/13 07:39:26;;;;;;;24.83;12.20;;;;;;;;;;4982655;28;107379;-64
2022/03/13 07:41:56;;;;;;;22.42;12.77;;;;;;;;;;4992738;28;107372;-65
2022/03/13 07:44:23;;;;;;;22.58;11.88;;;;;;;;;;4973026;28;108094;-64
2022/03/13 07:46:50;;;;;;;21.85;12.40;;;;;;;;;;4983318;28;107362;-63
2022/03/13 07:49:17;;;;;;;26.48;12.77;;;;;;;;;;4987590;28;105943;-63
2022/03/13 07:51:43;;;;;;;23.85;12.52;;;;;;;;;;4988976;28;107376;-63
2022/03/13 07:54:11;;;;;;;26.02;12.38;;;;;;;;;;4977363;28;107806;-64
2022/03/13 07:56:37;;;;;;;23.50;12.38;;;;;;;;;;4992047;28;107397;-64
2022/03/13 07:59:04;;;;;;;20.58;11.55;;;;;;;;;;4987728;28;107500;-69
2022/03/13 08:01:30;;;;;;;21.15;12.10;;;;;;;;;;4986305;28;105611;-63
2022/03/13 08:04:01;;;;;;;24.88;12.18;;;;;;;;;;4988126;28;107520;-62
2022/03/13 08:06:28;;;;;;;25.45;12.63;;;;;;;;;;4987980;28;108368;-63
2022/03/13 08:08:54;;;;;;;23.02;12.48;;;;;;;;;;4980008;28;107261;-63
2022/03/13 08:11:22;;;;;;;21.83;12.50;;;;;;;;;;4986474;28;106684;-63
2022/03/13 08:13:49;;;;;;;26.65;12.32;;;;;;;;;;4969392;28;109148;-63
2022/03/13 08:16:17;;;;;;;23.27;12.43;;;;;;;;;;4980566;28;106492;-64
2022/03/13 08:18:44;;;;;;;21.67;12.55;;;;;;;;;;4992290;28;106982;-63
2022/03/13 08:21:10;;;;;;;19.98;11.60;;;;;;;;;;4986102;28;106827;-63
2022/03/13 08:23:36;;;;;;;24.67;12.40;;;;;;;;;;4981577;28;106538;-63
2022/03/13 08:26:03;;;;;;;20.48;12.02;;;;;;;;;;4988095;28;107984;-63
2022/03/13 08:28:30;;;;;;;21.10;11.60;;;;;;;;;;4992642;28;106399;-64
2022/03/13 08:30:58;;;;;;;23.42;12.48;;;;;;;;;;4985389;28;106968;-65
2022/03/13 08:33:24;;;;;;;24.48;13.38;;;;;;;;;;4991263;28;106441;-64
2022/03/13 08:35:51;;;;;;;26.15;11.90;;;;;;;;;;4989719;28;106201;-64
2022/03/13 08:38:17;;;;;;;24.92;12.10;;;;;;;;;;4964149;28;106746;-64
2022/03/13 08:40:44;;;;;;;19.73;11.20;;;;;;;;;;4994288;28;107493;-65
2022/03/13 08:43:10;;;;;;;20.67;12.63;;;;;;;;;;4990026;28;106037;-68
2022/03/13 08:45:37;;;;;;;22.08;11.60;;;;;;;;;;4987818;28;107379;-66
2022/03/13 08:48:04;;;;;;;23.88;11.77;;;;;;;;;;4982929;28;106118;-65
2022/03/13 08:50:30;;;;;;;21.55;11.88;;;;;;;;;;4990653;28;107368;-64
2022/03/13 08:52:57;;;;;;;22.40;11.98;;;;;;;;;;4985158;28;107503;-63
2022/03/13 08:55:24;;;;;;;22.45;12.00;;;;;;;;;;4987477;28;107108;-64
2022/03/13 08:57:51;;;;;;;21.98;11.50;;;;;;;;;;4986934;28;106872;-64
2022/03/13 09:00:18;;;;;;;22.35;11.55;;;;;;;;;;4988997;28;107330;-65
2022/03/13 09:02:44;;;;;;;19.73;10.35;;;;;;;;;;4978847;28;108002;-62
2022/03/13 09:05:11;;;;;;;22.25;11.48;;;;;;;;;;4980870;28;107391;-64
2022/03/13 09:07:38;;;;;;;20.08;11.27;;;;;;;;;;4992793;28;106024;-63
2022/03/13 09:10:07;;;;;;;20.27;10.73;;;;;;;;;;4987847;28;106217;-64
2022/03/13 09:12:34;;;;;;;21.77;10.75;;;;;;;;;;4989135;28;107870;-67
2022/03/13 09:15:01;;;;;;;21.52;11.32;;;;;;;;;;4988493;28;107381;-62
2022/03/13 09:17:27;;;;;;;22.35;11.48;;;;;;;;;;4989423;28;107131;-62
2022/03/13 09:19:55;;;;;;;20.20;10.82;;;;;;;;;;4991183;28;107252;-60
2022/03/13 09:22:22;;;;;;;21.92;11.23;;;;;;;;;;4987843;28;105976;-63
2022/03/13 09:24:50;;;;;;;21.52;10.52;;;;;;;;;;4989657;28;106792;-63
2022/03/13 09:27:17;;;;;;;17.65;10.13;;;;;;;;;;4988844;28;106636;-63
2022/03/13 09:29:43;;;;;;;24.10;11.27;;;;;;;;;;4989862;28;106077;-63
2022/03/13 09:32:09;;;;;;;22.02;11.45;;;;;;;;;;4978898;28;107440;-65
2022/03/13 09:34:36;;;;;;;19.13;11.05;;;;;;;;;;4988198;28;106161;-64
2022/03/13 09:37:02;;;;;;;18.42;11.23;;;;;;;;;;4986772;28;107739;-64
2022/03/13 09:39:30;;;;;;;22.67;10.90;;;;;;;;;;4990501;28;108260;-63
2022/03/13 09:41:56;;;;;;;28.27;11.57;;;;;;;;;;4985249;28;105665;-64
2022/03/13 09:44:24;;;;;;;21.38;11.35;;;;;;;;;;4986236;28;106398;-64
2022/03/13 09:46:51;;;;;;;21.40;11.35;;;;;;;;;;4979767;28;107707;-63
2022/03/13 09:49:20;;;;;;;21.38;11.32;;;;;;;;;;4970466;28;107127;-65
2022/03/13 09:51:47;;;;;;;23.63;11.90;;;;;;;;;;4977186;28;106520;-64
2022/03/13 09:54:13;;;;;;;21.48;12.15;;;;;;;;;;4970596;28;106670;-65
2022/03/13 09:56:40;;;;;;;21.38;11.10;;;;;;;;;;4982511;28;106463;-65
2022/03/13 09:59:07;;;;;;;25.80;11.32;;;;;;;;;;4988289;28;107449;-64
2022/03/13 10:01:35;;;;;;;22.05;12.32;;;;;;;;;;4984385;28;106880;-64
2022/03/13 10:04:03;;;;;;;20.63;11.90;;;;;;;;;;4984357;28;107154;-65
2022/03/13 10:06:30;;;;;;;20.67;11.50;;;;;;;;;;4982839;28;107809;-66
2022/03/13 10:08:56;;;;;;;24.88;12.13;;;;;;;;;;4989631;28;106885;-65
2022/03/13 10:11:32;;;;;;;21.98;11.82;;;;;;;;;;4984769;28;107407;-66
2022/03/13 10:14:06;;;;;;;20.92;11.75;;;;;;;;;;4982604;28;107485;-66
2022/03/13 10:16:36;;;;;;;18.88;11.43;;;;;;;;;;4982310;28;106581;-65
2022/03/13 10:19:13;;;;;;;21.10;12.43;;;;;;;;;;4982231;28;107978;-68
2022/03/13 10:21:58;;;;;;;25.80;12.93;;;;;;;;;;4989836;28;106184;-64
2022/03/13 10:24:25;;;;;;;20.55;11.52;;;;;;;;;;4983269;28;107853;-64
2022/03/13 10:27:11;;;;;;;22.65;12.45;;;;;;;;;;4983836;28;106291;-64
2022/03/13 10:29:38;;;;;;;20.33;11.93;;;;;;;;;;4977332;28;106447;-64
2022/03/13 10:32:05;;;;;;;19.65;11.60;;;;;;;;;;4985136;28;106810;-66
2022/03/13 10:34:33;;;;;;;22.15;12.02;;;;;;;;;;4971560;28;109329;-64
2022/03/13 10:37:01;;;;;;;20.45;12.70;;;;;;;;;;4983885;28;106689;-64
2022/03/13 10:39:28;;;;;;;21.17;11.75;;;;;;;;;;4981517;28;107480;-65
2022/03/13 10:42:01;;;;;;;19.65;11.57;;;;;;;;;;4983443;28;107213;-64
2022/03/13 10:44:30;;;;;;;22.45;11.10;;;;;;;;;;4988633;28;106774;-64
2022/03/13 10:46:57;;;;;;;21.73;11.90;;;;;;;;;;4987880;28;107065;-65
2022/03/13 10:49:36;;;;;;;21.90;11.60;;;;;;;;;;4965835;28;106281;-65
2022/03/13 10:52:22;;;;;;;23.45;12.93;;;;;;;;;;4989652;28;107594;-65
2022/03/13 10:54:48;;;;;;;20.50;11.88;;;;;;;;;;4980444;28;106512;-65
2022/03/13 10:57:15;;;;;;;19.65;12.15;;;;;;;;;;4986461;28;107167;-67
2022/03/13 10:59:43;;;;;;;20.90;12.57;;;;;;;;;;4986808;28;107214;-64
2022/03/13 11:02:12;;;;;;;22.42;12.73;;;;;;;;;;4987282;28;106384;-65
2022/03/13 11:05:05;;;;;;;19.83;11.77;;;;;;;;;;4988377;28;107570;-64
2022/03/13 11:07:32;;;;;;;19.48;11.65;;;;;;;;;;4984917;28;106736;-68
2022/03/13 11:09:58;;;;;;;21.25;11.88;;;;;;;;;;4987494;28;106741;-64
2022/03/13 11:12:26;;;;;;;19.17;11.18;;;;;;;;;;4986148;28;107541;-65
2022/03/13 11:14:55;;;;;;;17.50;10.90;;;;;;;;;;4985252;28;106125;-65
2022/03/13 11:17:23;;;;;;;18.67;11.45;;;;;;;;;;4989069;28;106798;-65
2022/03/13 11:19:53;;;;;;;21.00;12.43;;;;;;;;;;4988970;28;107620;-64
2022/03/13 11:22:35;;;;;;;20.10;12.05;;;;;;;;;;5070510;27;106013;-64
2022/03/13 11:25:08;;;;;;;22.17;12.70;;;;;;;;;;5053088;27;107479;-65
2022/03/13 11:27:36;;;;;;;22.42;11.95;;;;;;;;;;5061131;27;106203;-64
2022/03/13 11:30:03;;;;;;;18.38;11.60;;;;;;;;;;5059926;27;106689;-65
2022/03/13 11:32:36;;;;;;;18.38;11.25;;;;;;;;;;5064358;27;106465;-64
2022/03/13 11:35:11;;;;;;;16.52;10.80;;;;;;;;;;5044098;27;107140;-62
2022/03/13 11:37:43;;;;;;;17.23;11.65;;;;;;;;;;5057757;27;106428;-64
2022/03/13 11:40:11;;;;;;;19.80;12.18;;;;;;;;;;5048379;27;109980;-66
2022/03/13 11:42:48;;;;;;;19.47;11.70;;;;;;;;;;5041350;27;106541;-65
2022/03/13 11:45:28;;;;;;;14.23;9.65;;;;;;;;;;5053223;27;107858;-64
2022/03/13 11:47:54;;;;;;;15.00;9.30;;;;;;;;;;5046372;27;107742;-65
2022/03/13 11:50:40;;;;;;;16.30;9.93;;;;;;;;;;5057985;27;106618;-64
2022/03/13 11:53:17;;;;;;;14.52;9.23;;;;;;;;;;5062050;27;107599;-64
2022/03/13 11:56:04;;;;;;;15.85;10.32;;;;;;;;;;5051575;27;105775;-64
2022/03/13 11:58:44;;;;;;;17.10;10.32;;;;;;;;;;5061139;27;106824;-64
2022/03/13 12:01:21;;;;;;;21.65;11.50;;;;;;;;;;5055250;27;107476;-64
2022/03/13 12:04:07;;;;;;;40.83;11.98;;;;;;;;;;5052056;27;106152;-65
2022/03/13 12:06:41;;;;;;;18.75;11.27;;;;;;;;;;5061531;27;108596;-64
2022/03/13 12:09:12;;;;;;;18.55;11.52;;;;;;;;;;5057479;27;107043;-65
2022/03/13 12:11:46;;;;;;;17.95;11.27;;;;;;;;;;5059632;27;107176;-65
2022/03/13 12:14:14;;;;;;;19.48;10.77;;;;;;;;;;5062265;27;108226;-64
2022/03/13 12:16:41;;;;;;;18.25;11.07;;;;;;;;;;5062409;27;107803;-64
2022/03/13 12:19:09;;;;;;;17.98;10.98;;;;;;;;;;5062432;27;106618;-63
2022/03/13 12:21:36;;;;;;;18.90;11.00;;;;;;;;;;5059531;27;106633;-62
2022/03/13 12:24:13;;;;;;;19.25;10.82;;;;;;;;;;5064673;27;106565;-65
2022/03/13 12:26:40;;;;;;;17.77;10.98;;;;;;;;;;5063173;27;107266;-64
2022/03/13 12:29:08;;;;;;;18.02;11.43;;;;;;;;;;5064179;27;108225;-65
2022/03/13 12:31:41;;;;;;;16.73;10.93;;;;;;;;;;5056850;27;108036;-65
2022/03/13 12:34:08;;;;;;;16.75;10.57;;;;;;;;;;5045190;27;109915;-64
2022/03/13 12:36:35;;;;;;;17.52;10.30;;;;;;;;;;5048959;27;106960;-67
2022/03/13 12:39:02;;;;;;;15.65;10.43;;;;;;;;;;5045189;27;107480;-65
2022/03/13 12:41:29;;;;;;;15.85;10.05;;;;;;;;;;5042143;27;107407;-64
2022/03/13 12:44:01;;;;;;;15.88;11.02;;;;;;;;;;5019120;27;107975;-64
2022/03/13 12:46:29;;;;;;;17.40;10.27;;;;;;;;;;5044870;27;107586;-65
2022/03/13 12:48:56;;;;;;;16.65;10.50;;;;;;;;;;5042400;27;106876;-64
2022/03/13 12:51:31;;;;;;;15.48;10.43;;;;;;;;;;5053883;27;107204;-64
2022/03/13 12:53:57;;;;;;;18.17;11.02;;;;;;;;;;5030658;27;108126;-64
2022/03/13 12:56:27;;;;;;;16.98;11.10;;;;;;;;;;5042384;27;108476;-64
2022/03/13 12:58:53;;;;;;;14.02;10.18;;;;;;;;;;5044397;27;106737;-64
2022/03/13 13:01:21;;;;;;;16.20;10.20;;;;;;;;;;5042549;27;108032;-64
2022/03/13 13:03:48;;;;;;;15.77;10.23;;;;;;;;;;5049091;27;106200;-64
2022/03/13 13:06:26;;;;;;;15.10;10.15;;;;;;;;;;5047140;27;107445;-67
2022/03/13 13:08:53;;;;;;;14.20;10.02;;;;;;;;;;5042175;27;108037;-65
2022/03/13 13:11:29;;;;;;;14.77;10.38;;;;;;;;;;5049054;27;107964;-64
2022/03/13 13:14:01;;;;;;;15.20;10.15;;;;;;;;;;5039977;27;108074;-64
2022/03/13 13:16:31;;;;;;;15.63;9.60;;;;;;;;;;5039484;27;108176;-64
2022/03/13 13:18:58;;;;;;;13.30;9.55;;;;;;;;;;5030938;27;106997;-64
2022/03/13 13:21:32;;;;;;;14.05;9.80;;;;;;;;;;5044552;27;107054;-63
2022/03/13 13:23:58;;;;;;;14.13;9.43;;;;;;;;;;5028098;27;107642;-64
2022/03/13 13:26:42;;;;;;;16.48;9.30;;;;;;;;;;5040764;27;108022;-64
2022/03/13 13:29:29;;;;;;;13.82;8.50;;;;;;;;;;5040050;27;107065;-64
2022/03/13 13:32:15;;;;;;;11.13;8.07;;;;;;;;;;5042993;27;106568;-64
2022/03/13 13:34:58;;;;;;;13.13;7.95;;;;;;;;;;5038966;27;106874;-63
2022/03/13 13:37:25;;;;;;;15.23;6.90;;;;;;;;;;5039277;27;108860;-64
2022/03/13 13:40:04;;;;;;;13.50;6.93;;;;;;;;;;5039232;27;107371;-64
2022/03/13 13:42:36;;;;;;;9.00;6.70;;;;;;;;;;5040302;27;108898;-64
2022/03/13 13:45:04;;;;;;;10.27;6.57;;;;;;;;;;5033240;27;106937;-63
2022/03/13 13:47:30;;;;;;;12.82;6.97;;;;;;;;;;5048527;27;107413;-64
2022/03/13 13:49:57;;;;;;;8.82;6.45;;;;;;;;;;5039850;27;106922;-65
2022/03/13 13:52:30;;;;;;;10.85;7.03;;;;;;;;;;5045775;27;107703;-66
2022/03/13 13:54:56;;;;;;;10.50;7.47;;;;;;;;;;5047610;27;108533;-65
2022/03/13 13:57:25;;;;;;;10.63;7.90;;;;;;;;;;5048974;27;108826;-64
2022/03/13 13:59:51;;;;;;;12.68;8.27;;;;;;;;;;5043839;27;108028;-65
2022/03/13 14:02:20;;;;;;;10.68;8.02;;;;;;;;;;5043743;27;108085;-65
2022/03/13 14:04:48;;;;;;;10.95;8.13;;;;;;;;;;5049465;27;109838;-64
2022/03/13 14:07:15;;;;;;;13.50;7.68;;;;;;;;;;5049227;27;108015;-63
2022/03/13 14:09:41;;;;;;;11.23;7.95;;;;;;;;;;5037285;27;109800;-63
2022/03/13 14:12:08;;;;;;;11.77;7.78;;;;;;;;;;5045667;27;108349;-63
2022/03/13 14:14:35;;;;;;;11.95;8.75;;;;;;;;;;5040799;27;108434;-64
2022/03/13 14:17:02;;;;;;;13.50;9.55;;;;;;;;;;5041379;27;109236;-63
2022/03/13 14:19:30;;;;;;;12.55;8.50;;;;;;;;;;5050246;27;108859;-64